createdAt,value
2022-09-01T00:01:08.906Z,22.70
2022-09-01T00:03:39.512Z,22.70
2022-09-01T00:06:11.858Z,22.70
2022-09-01T00:08:42.319Z,22.60
2022-09-01T00:11:12.756Z,22.60
2022-09-01T00:13:43.111Z,22.60
2022-09-01T00:16:17.571Z,22.60
2022-09-01T00:18:50.109Z,22.50
2022-09-01T00:21:22.397Z,22.40
2022-09-01T00:23:52.789Z,22.40
2022-09-01T00:26:23.143Z,22.40
2022-09-01T00:28:53.672Z,22.40
2022-09-01T00:31:26.993Z,22.40
2022-09-01T00:33:58.105Z,22.30
2022-09-01T00:36:28.538Z,22.20
2022-09-01T00:38:59.032Z,22.20
2022-09-01T00:41:38.338Z,22.20
2022-09-01T00:44:12.186Z,22.20
2022-09-01T00:46:51.098Z,22.10
2022-09-01T00:49:34.935Z,22.10
2022-09-01T00:52:09.716Z,22.10
2022-09-01T00:54:47.857Z,22.10
2022-09-01T00:57:18.883Z,22.00
2022-09-01T00:59:53.375Z,22.00
2022-09-01T01:02:26.696Z,21.90
2022-09-01T01:04:59.750Z,21.90
2022-09-01T01:07:31.549Z,21.90
2022-09-01T01:10:02.471Z,21.90
2022-09-01T01:12:33.470Z,21.90
2022-09-01T01:15:05.784Z,21.90
2022-09-01T01:17:39.362Z,21.80
2022-09-01T01:20:24.895Z,21.80
2022-09-01T01:23:10.252Z,21.70
2022-09-01T01:25:46.951Z,21.70
2022-09-01T01:28:20.919Z,21.70
2022-09-01T01:30:56.843Z,21.70
2022-09-01T01:33:32.463Z,21.70
2022-09-01T01:36:08.058Z,21.60
2022-09-01T01:38:38.403Z,21.60
2022-09-01T01:41:11.785Z,21.50
2022-09-01T01:43:43.837Z,21.50
2022-09-01T01:46:15.945Z,21.50
2022-09-01T01:48:47.275Z,21.50
2022-09-01T01:51:25.193Z,21.40
2022-09-01T01:53:55.964Z,21.40
2022-09-01T01:56:29.220Z,21.30
2022-09-01T01:59:02.173Z,21.40
2022-09-01T02:01:33.623Z,21.30
2022-09-01T02:04:04.427Z,21.30
2022-09-01T02:06:37.858Z,21.30
2022-09-01T02:09:08.422Z,21.20
2022-09-01T02:11:41.720Z,21.20
2022-09-01T02:14:13.731Z,21.20
2022-09-01T02:16:45.393Z,21.10
2022-09-01T02:19:19.715Z,21.10
2022-09-01T02:21:54.802Z,21.10
2022-09-01T02:24:29.039Z,21.10
2022-09-01T02:27:03.234Z,21.10
2022-09-01T02:29:42.292Z,21.10
2022-09-01T02:32:18.306Z,21.10
2022-09-01T02:34:53.871Z,21.10
2022-09-01T02:37:28.870Z,21.10
2022-09-01T02:40:00.082Z,21.00
2022-09-01T02:42:33.034Z,21.10
2022-09-01T02:45:03.805Z,21.10
2022-09-01T02:47:34.924Z,21.00
2022-09-01T02:50:13.988Z,21.00
2022-09-01T02:52:44.289Z,21.00
2022-09-01T02:55:17.734Z,21.10
2022-09-01T02:57:51.548Z,21.10
2022-09-01T03:00:31.650Z,21.00
2022-09-01T03:03:04.431Z,21.00
2022-09-01T03:05:36.355Z,21.00
2022-09-01T03:08:10.635Z,21.00
2022-09-01T03:10:44.449Z,20.90
2022-09-01T03:13:20.815Z,20.90
2022-09-01T03:15:52.272Z,20.90
2022-09-01T03:18:22.793Z,20.90
2022-09-01T03:20:54.107Z,20.80
2022-09-01T03:23:25.596Z,20.80
2022-09-01T03:25:56.113Z,20.70
2022-09-01T03:28:29.432Z,20.70
2022-09-01T03:31:01.200Z,20.60
2022-09-01T03:33:33.264Z,20.60
2022-09-01T03:36:04.806Z,20.60
2022-09-01T03:38:48.931Z,20.50
2022-09-01T03:41:22.902Z,20.50
2022-09-01T03:43:58.350Z,20.40
2022-09-01T03:46:36.862Z,20.40
2022-09-01T03:49:12.522Z,20.40
2022-09-01T03:51:44.482Z,20.40
2022-09-01T03:54:15.385Z,20.40
2022-09-01T03:56:45.816Z,20.30
2022-09-01T03:59:23.272Z,20.20
2022-09-01T04:01:54.394Z,20.20
2022-09-01T04:04:24.870Z,20.20
2022-09-01T04:06:55.578Z,20.10
2022-09-01T04:09:26.434Z,20.10
2022-09-01T04:11:56.886Z,20.10
2022-09-01T04:14:30.762Z,20.10
2022-09-01T04:17:13.889Z,20.10
2022-09-01T04:19:44.777Z,20.10
2022-09-01T04:22:17.857Z,20.00
2022-09-01T04:24:48.729Z,20.00
2022-09-01T04:27:23.230Z,20.00
2022-09-01T04:29:57.952Z,19.90
2022-09-01T04:32:32.665Z,19.90
2022-09-01T04:35:06.040Z,19.90
2022-09-01T04:37:37.625Z,19.90
2022-09-01T04:40:10.245Z,19.80
2022-09-01T04:42:42.193Z,19.80
2022-09-01T04:45:20.450Z,19.70
2022-09-01T04:47:52.566Z,19.70
2022-09-01T04:50:26.494Z,19.60
2022-09-01T04:53:28.600Z,19.70
2022-09-01T04:55:59.624Z,19.60
2022-09-01T04:58:30.956Z,19.50
2022-09-01T05:01:08.243Z,19.60
2022-09-01T05:03:39.172Z,19.40
2022-09-01T05:06:23.558Z,19.50
2022-09-01T05:08:59.576Z,19.40
2022-09-01T05:11:56.664Z,19.40
2022-09-01T05:14:33.793Z,19.40
2022-09-01T05:17:10.470Z,19.30
2022-09-01T05:19:41.061Z,19.40
2022-09-01T05:22:13.445Z,19.30
2022-09-01T05:24:47.385Z,19.30
2022-09-01T05:27:18.362Z,19.30
2022-09-01T05:29:49.897Z,19.20
2022-09-01T05:32:26.255Z,19.20
2022-09-01T05:34:57.725Z,19.20
2022-09-01T05:37:30.525Z,19.20
2022-09-01T05:40:00.967Z,19.20
2022-09-01T05:42:32.325Z,19.20
2022-09-01T05:45:03.009Z,19.20
2022-09-01T05:47:37.727Z,19.20
2022-09-01T05:50:14.252Z,19.20
2022-09-01T05:52:48.161Z,19.20
2022-09-01T05:55:19.055Z,19.20
2022-09-01T05:57:50.721Z,19.30
2022-09-01T06:00:21.301Z,19.30
2022-09-01T06:02:58.307Z,19.30
2022-09-01T06:05:29.938Z,19.30
2022-09-01T06:08:01.008Z,19.30
2022-09-01T06:10:32.318Z,19.30
2022-09-01T06:13:02.970Z,19.30
2022-09-01T06:15:34.249Z,19.40
2022-09-01T06:18:09.374Z,19.40
2022-09-01T06:20:47.941Z,19.40
2022-09-01T06:23:19.884Z,19.40
2022-09-01T06:25:51.774Z,19.40
2022-09-01T06:28:25.092Z,19.50
2022-09-01T06:30:57.419Z,19.50
2022-09-01T06:33:31.270Z,19.50
2022-09-01T06:36:05.818Z,19.60
2022-09-01T06:38:36.376Z,19.60
2022-09-01T06:41:13.138Z,19.60
2022-09-01T06:43:44.873Z,19.60
2022-09-01T06:46:15.454Z,19.80
2022-09-01T06:48:49.315Z,20.00
2022-09-01T06:51:22.455Z,19.80
2022-09-01T06:53:57.031Z,19.80
2022-09-01T06:56:38.915Z,19.80
2022-09-01T06:59:15.816Z,19.90
2022-09-01T07:08:13.645Z,20.00
2022-09-01T07:11:19.956Z,20.00
2022-09-01T07:19:53.349Z,20.20
2022-09-01T07:25:20.756Z,20.30
2022-09-01T07:28:01.663Z,20.30
2022-09-01T07:30:33.602Z,20.30
2022-09-01T07:42:58.961Z,20.10
2022-09-01T07:48:00.293Z,20.60
2022-09-01T07:53:24.088Z,20.80
2022-09-01T07:55:59.251Z,20.80
2022-09-01T07:58:31.615Z,20.80
2022-09-01T08:01:11.570Z,20.90
2022-09-01T08:03:45.244Z,20.90
2022-09-01T08:06:19.828Z,21.00
2022-09-01T08:08:57.052Z,21.10
2022-09-01T08:11:58.578Z,21.10
2022-09-01T08:14:23.487Z,21.10
2022-09-01T08:16:55.359Z,21.20
2022-09-01T08:19:26.560Z,21.30
2022-09-01T08:22:15.851Z,21.30
2022-09-01T08:24:57.991Z,21.30
2022-09-01T08:27:30.992Z,21.50
2022-09-01T08:30:01.679Z,21.50
2022-09-01T08:32:32.546Z,21.60
2022-09-01T08:35:05.234Z,21.60
2022-09-01T08:37:35.845Z,21.70
2022-09-01T08:40:07.290Z,21.70
2022-09-01T08:42:57.338Z,21.80
2022-09-01T08:45:34.458Z,21.80
2022-09-01T08:48:57.340Z,21.90
2022-09-01T08:51:20.048Z,22.00
2022-09-01T08:54:11.104Z,22.10
2022-09-01T08:56:42.033Z,22.10
2022-09-01T08:59:20.093Z,22.10
2022-09-01T09:02:18.721Z,22.20
2022-09-01T09:04:58.347Z,22.30
2022-09-01T09:07:52.040Z,22.30
2022-09-01T09:10:28.934Z,22.40
2022-09-01T09:13:13.240Z,22.50
2022-09-01T09:15:50.776Z,22.50
2022-09-01T09:18:39.673Z,22.60
2022-09-01T09:21:17.116Z,22.70
2022-09-01T09:23:52.899Z,22.80
2022-09-01T09:26:23.457Z,22.80
2022-09-01T09:28:55.313Z,22.90
2022-09-01T09:31:36.589Z,23.00
2022-09-01T09:34:19.007Z,23.00
2022-09-01T09:36:54.689Z,23.10
2022-09-01T09:39:26.213Z,23.20
2022-09-01T09:42:13.290Z,23.30
2022-09-01T09:44:48.986Z,23.40
2022-09-01T09:47:43.965Z,23.40
2022-09-01T09:50:23.135Z,23.50
2022-09-01T09:52:56.808Z,23.50
2022-09-01T09:55:30.481Z,23.60
2022-09-01T09:58:04.378Z,23.60
2022-09-01T10:00:36.933Z,23.70
2022-09-01T10:03:16.198Z,23.90
2022-09-01T10:05:49.154Z,23.90
2022-09-01T10:08:45.455Z,24.00
2022-09-01T10:11:35.699Z,24.10
2022-09-01T10:14:10.407Z,24.20
2022-09-01T10:16:47.899Z,24.20
2022-09-01T10:19:21.013Z,24.30
2022-09-01T10:21:51.748Z,24.30
2022-09-01T10:24:31.017Z,24.30
2022-09-01T10:27:11.331Z,24.50
2022-09-01T10:29:49.301Z,24.50
2022-09-01T10:32:49.055Z,24.60
2022-09-01T10:35:22.115Z,24.60
2022-09-01T10:37:52.655Z,24.70
2022-09-01T10:40:43.807Z,24.90
2022-09-01T10:43:48.256Z,24.90
2022-09-01T10:46:59.934Z,24.90
2022-09-01T10:50:09.906Z,25.00
2022-09-01T10:53:05.529Z,25.00
2022-09-01T10:55:51.052Z,25.10
2022-09-01T11:02:24.816Z,25.30
2022-09-01T11:05:19.982Z,25.30
2022-09-01T11:08:00.583Z,25.30
2022-09-01T11:10:54.195Z,25.50
2022-09-01T11:13:40.295Z,25.40
2022-09-01T11:16:46.446Z,25.50
2022-09-01T11:19:44.455Z,25.50
2022-09-01T11:22:26.499Z,25.70
2022-09-01T11:25:39.060Z,25.70
2022-09-01T11:28:48.283Z,25.60
2022-09-01T11:31:32.965Z,25.70
2022-09-01T11:34:13.943Z,25.80
2022-09-01T11:37:00.479Z,26.00
2022-09-01T11:39:51.166Z,25.90
2022-09-01T11:42:26.538Z,25.90
2022-09-01T11:45:01.060Z,26.10
2022-09-01T11:47:36.658Z,26.10
2022-09-01T11:50:11.239Z,26.10
2022-09-01T11:52:42.274Z,26.20
2022-09-01T11:55:14.032Z,26.20
2022-09-01T11:57:44.642Z,26.30
2022-09-01T12:00:17.667Z,26.40
2022-09-01T12:02:54.534Z,26.40
2022-09-01T12:05:34.515Z,26.40
2022-09-01T12:08:07.835Z,26.50
2022-09-01T12:10:40.579Z,26.50
2022-09-01T12:13:13.524Z,26.20
2022-09-01T12:16:07.134Z,26.00
2022-09-01T12:18:41.153Z,26.10
2022-09-01T12:21:11.617Z,26.10
2022-09-01T12:23:44.386Z,26.10
2022-09-01T12:26:18.757Z,26.40
2022-09-01T12:28:51.115Z,26.40
2022-09-01T12:31:25.843Z,26.60
2022-09-01T12:33:59.460Z,26.70
2022-09-01T12:36:33.894Z,26.80
2022-09-01T12:39:23.227Z,26.80
2022-09-01T12:42:07.817Z,27.00
2022-09-01T12:44:47.931Z,27.10
2022-09-01T12:47:52.822Z,27.10
2022-09-01T12:50:47.422Z,27.10
2022-09-01T12:53:24.678Z,27.10
2022-09-01T12:56:08.721Z,27.40
2022-09-01T12:58:42.993Z,27.40
2022-09-01T13:01:29.144Z,27.50
2022-09-01T13:04:26.113Z,27.50
2022-09-01T13:07:05.331Z,27.40
2022-09-01T13:09:36.098Z,27.70
2022-09-01T13:12:21.132Z,27.70
2022-09-01T13:14:53.070Z,27.80
2022-09-01T13:17:24.266Z,27.80
2022-09-01T13:19:55.029Z,27.90
2022-09-01T13:22:28.309Z,27.90
2022-09-01T13:24:59.015Z,28.00
2022-09-01T13:27:30.014Z,28.10
2022-09-01T13:30:01.025Z,28.10
2022-09-01T13:32:31.747Z,28.30
2022-09-01T13:35:02.303Z,28.30
2022-09-01T13:37:36.214Z,28.40
2022-09-01T13:40:09.371Z,28.40
2022-09-01T13:42:40.192Z,28.30
2022-09-01T13:45:13.720Z,27.90
2022-09-01T13:53:28.276Z,27.60
2022-09-01T13:55:58.852Z,27.80
2022-09-01T13:58:29.712Z,27.90
2022-09-01T14:01:01.062Z,28.10
2022-09-01T14:03:32.370Z,28.10
2022-09-01T14:06:03.221Z,28.20
2022-09-01T14:08:36.371Z,28.10
2022-09-01T14:11:06.901Z,27.90
2022-09-01T14:13:38.180Z,28.00
2022-09-01T14:16:14.194Z,28.10
2022-09-01T14:18:44.874Z,28.00
2022-09-01T14:21:15.638Z,27.90
2022-09-01T14:23:48.946Z,27.90
2022-09-01T14:26:19.851Z,28.00
2022-09-01T14:28:51.704Z,28.10
2022-09-01T14:31:22.291Z,28.20
2022-09-01T14:33:53.062Z,28.20
2022-09-01T14:36:28.385Z,28.20
2022-09-01T14:39:01.886Z,28.30
2022-09-01T14:41:33.080Z,28.30
2022-09-01T14:44:04.878Z,28.30
2022-09-01T14:46:37.508Z,28.30
2022-09-01T14:49:08.614Z,28.30
2022-09-01T14:54:33.219Z,28.40
2022-09-01T14:59:54.782Z,28.30
2022-09-01T15:02:25.547Z,28.20
2022-09-01T15:04:56.008Z,28.30
2022-09-01T15:07:29.258Z,28.30
2022-09-01T15:10:02.453Z,28.30
2022-09-01T15:12:33.324Z,28.30
2022-09-01T15:15:04.386Z,28.40
2022-09-01T15:17:34.764Z,28.40
2022-09-01T15:20:19.421Z,28.40
2022-09-01T15:22:50.054Z,28.30
2022-09-01T15:25:23.527Z,28.30
2022-09-01T15:27:54.015Z,28.40
2022-09-01T15:30:24.789Z,28.30
2022-09-01T15:32:57.083Z,28.40
2022-09-01T15:35:27.593Z,28.50
2022-09-01T15:37:58.365Z,28.50
2022-09-01T15:40:34.591Z,28.40
2022-09-01T15:43:05.065Z,28.50
2022-09-01T15:45:35.902Z,28.50
2022-09-01T15:48:09.883Z,28.50
2022-09-01T15:50:40.332Z,28.50
2022-09-01T15:53:13.553Z,28.50
2022-09-01T15:55:49.108Z,28.50
2022-09-01T15:58:21.261Z,28.50
2022-09-01T16:00:51.724Z,28.60
2022-09-01T16:03:24.516Z,28.80
2022-09-01T16:05:54.920Z,28.90
2022-09-01T16:08:25.281Z,28.90
2022-09-01T16:10:58.673Z,28.90
2022-09-01T16:13:29.274Z,29.10
2022-09-01T16:16:14.753Z,29.00
2022-09-01T16:18:51.011Z,29.00
2022-09-01T16:21:27.636Z,29.10
2022-09-01T16:23:59.807Z,29.10
2022-09-01T16:26:38.582Z,29.20
2022-09-01T16:29:15.116Z,29.10
2022-09-01T16:31:45.471Z,29.20
2022-09-01T16:34:18.975Z,29.00
2022-09-01T16:36:57.173Z,29.20
2022-09-01T16:39:36.836Z,29.30
2022-09-01T16:42:22.163Z,29.30
2022-09-01T16:45:04.071Z,29.30
2022-09-01T16:47:52.166Z,29.20
2022-09-01T16:50:30.448Z,29.30
2022-09-01T16:53:10.855Z,29.30
2022-09-01T16:55:57.475Z,29.60
2022-09-01T16:58:41.704Z,29.40
2022-09-01T17:01:23.296Z,29.40
2022-09-01T17:04:07.826Z,29.50
2022-09-01T17:06:47.609Z,29.80
2022-09-01T17:09:24.368Z,29.70
2022-09-01T17:11:58.258Z,29.60
2022-09-01T17:14:41.058Z,29.40
2022-09-01T17:17:15.005Z,29.60
2022-09-01T17:19:50.293Z,29.50
2022-09-01T17:22:21.961Z,29.50
2022-09-01T17:25:01.269Z,29.20
2022-09-01T17:27:35.892Z,29.00
2022-09-01T17:30:10.497Z,28.90
2022-09-01T17:32:54.734Z,28.90
2022-09-01T17:35:32.163Z,28.90
2022-09-01T17:38:12.346Z,28.80
2022-09-01T17:41:02.632Z,28.90
2022-09-01T17:43:46.215Z,28.80
2022-09-01T17:46:29.191Z,28.80
2022-09-01T17:49:05.710Z,28.70
2022-09-01T17:51:45.097Z,28.70
2022-09-01T17:54:27.053Z,28.50
2022-09-01T17:57:09.162Z,28.50
2022-09-01T17:59:50.404Z,28.40
2022-09-01T18:02:49.978Z,28.30
2022-09-01T18:05:24.665Z,28.20
2022-09-01T18:08:13.852Z,28.10
2022-09-01T18:10:50.323Z,28.10
2022-09-01T18:13:51.879Z,28.00
2022-09-01T18:16:20.120Z,27.90
2022-09-01T18:18:53.886Z,27.80
2022-09-01T18:21:29.998Z,27.70
2022-09-01T18:24:08.413Z,27.70
2022-09-01T18:26:42.574Z,27.60
2022-09-01T18:29:13.246Z,27.50
2022-09-01T18:32:02.549Z,27.40
2022-09-01T18:34:47.055Z,27.40
2022-09-01T18:37:30.117Z,27.30
2022-09-01T18:40:11.174Z,27.20
2022-09-01T18:42:47.646Z,27.10
2022-09-01T18:45:34.674Z,27.10
2022-09-01T18:48:12.136Z,27.00
2022-09-01T18:50:56.351Z,26.80
2022-09-01T18:53:38.717Z,26.80
2022-09-01T18:56:17.287Z,26.70
2022-09-01T18:59:04.465Z,26.70
2022-09-01T19:01:41.102Z,26.60
2022-09-01T19:04:18.854Z,26.60
2022-09-01T19:07:01.378Z,26.50
2022-09-01T19:09:36.367Z,26.40
2022-09-01T19:12:24.982Z,26.40
2022-09-01T19:15:02.750Z,26.30
2022-09-01T19:17:53.922Z,26.20
2022-09-01T19:20:27.630Z,26.10
2022-09-01T19:23:10.351Z,26.10
2022-09-01T19:25:42.643Z,26.00
2022-09-01T19:28:22.248Z,26.00
2022-09-01T19:30:57.812Z,25.90
2022-09-01T19:33:37.633Z,25.80
2022-09-01T19:36:12.082Z,25.80
2022-09-01T19:38:45.278Z,25.80
2022-09-01T19:41:20.159Z,25.70
2022-09-01T19:43:54.413Z,25.70
2022-09-01T19:46:31.581Z,25.60
2022-09-01T19:49:08.058Z,25.50
2022-09-01T19:51:48.977Z,25.50
2022-09-01T19:54:28.801Z,25.40
2022-09-01T19:57:08.533Z,25.40
2022-09-01T19:59:50.683Z,25.30
2022-09-01T20:02:29.636Z,25.30
2022-09-01T20:05:08.170Z,25.20
2022-09-01T20:07:40.589Z,25.20
2022-09-01T20:10:27.030Z,25.20
2022-09-01T20:13:14.986Z,25.10
2022-09-01T20:15:51.543Z,25.00
2022-09-01T20:18:29.591Z,25.00
2022-09-01T20:21:02.816Z,25.00
2022-09-01T20:23:40.228Z,24.90
2022-09-01T20:26:19.201Z,24.90
2022-09-01T20:28:53.329Z,24.80
2022-09-01T20:31:32.156Z,24.70
2022-09-01T20:34:07.912Z,24.70
2022-09-01T20:36:43.948Z,24.60
2022-09-01T20:39:34.881Z,24.60
2022-09-01T20:42:12.401Z,24.60
2022-09-01T20:44:49.572Z,24.50
2022-09-01T20:47:22.530Z,24.50
2022-09-01T20:49:53.005Z,24.30
2022-09-01T20:52:34.248Z,24.30
2022-09-01T20:55:14.327Z,24.30
2022-09-01T20:57:57.441Z,24.30
2022-09-01T21:00:30.378Z,24.20
2022-09-01T21:03:12.008Z,24.20
2022-09-01T21:05:51.705Z,24.20
2022-09-01T21:08:34.230Z,24.10
2022-09-01T21:11:20.522Z,24.10
2022-09-01T21:14:13.979Z,24.00
2022-09-01T21:16:52.742Z,24.00
2022-09-01T21:19:28.149Z,23.90
2022-09-01T21:22:07.311Z,23.90
2022-09-01T21:24:38.720Z,23.80
2022-09-01T21:27:16.182Z,23.80
2022-09-01T21:29:59.758Z,23.70
2022-09-01T21:32:34.497Z,23.70
2022-09-01T21:35:05.268Z,23.70
2022-09-01T21:37:35.654Z,23.60
2022-09-01T21:40:07.069Z,23.60
2022-09-01T21:42:42.385Z,23.50
2022-09-01T21:45:17.398Z,23.50
2022-09-01T21:47:49.352Z,23.50
2022-09-01T21:50:22.143Z,23.40
2022-09-01T21:52:52.597Z,23.40
2022-09-01T21:55:25.004Z,23.40
2022-09-01T21:57:55.716Z,23.30
2022-09-01T22:00:35.454Z,23.30
2022-09-01T22:03:08.759Z,23.20
2022-09-01T22:05:42.019Z,23.20
2022-09-01T22:08:13.212Z,23.20
2022-09-01T22:10:47.051Z,23.10
2022-09-01T22:13:17.654Z,23.00
2022-09-01T22:15:52.925Z,23.00
2022-09-01T22:18:25.139Z,23.00
2022-09-01T22:21:07.247Z,23.00
2022-09-01T22:23:38.302Z,23.00
2022-09-01T22:26:13.637Z,22.90
2022-09-01T22:28:45.965Z,22.90
2022-09-01T22:31:21.220Z,22.80
2022-09-01T22:33:51.675Z,22.80
2022-09-01T22:36:26.363Z,22.80
2022-09-01T22:38:58.178Z,22.80
2022-09-01T22:41:31.213Z,22.70
2022-09-01T22:44:03.175Z,22.70
2022-09-01T22:46:37.469Z,22.70
2022-09-01T22:49:08.526Z,22.60
2022-09-01T22:51:40.399Z,22.60
2022-09-01T22:54:12.428Z,22.60
2022-09-01T22:56:45.314Z,22.50
2022-09-01T22:59:18.562Z,22.50
2022-09-01T23:01:51.577Z,22.50
2022-09-01T23:04:22.024Z,22.50
2022-09-01T23:06:54.903Z,22.50
2022-09-01T23:09:26.170Z,22.40
2022-09-01T23:11:56.832Z,22.40
2022-09-01T23:14:27.258Z,22.30
2022-09-01T23:17:00.411Z,22.30
2022-09-01T23:19:30.852Z,22.30
2022-09-01T23:22:01.211Z,22.30
2022-09-01T23:24:31.858Z,22.20
2022-09-01T23:27:03.322Z,22.20
2022-09-01T23:29:33.701Z,22.10
2022-09-01T23:32:07.230Z,22.10
2022-09-01T23:34:37.598Z,22.10
2022-09-01T23:37:08.180Z,22.10
2022-09-01T23:39:38.539Z,22.00
2022-09-01T23:42:09.496Z,22.00
2022-09-01T23:44:39.855Z,22.00
2022-09-01T23:47:12.859Z,22.00
2022-09-01T23:49:44.289Z,22.00
2022-09-01T23:52:15.057Z,21.90
2022-09-01T23:54:45.626Z,21.90
2022-09-01T23:57:16.190Z,21.90
2022-09-01T23:59:46.515Z,21.90
